aviador You're here:

FKKR Decoded Metar

GAROUA in CAMEROON
Report Time2018-07-19 12:00:00
UTC Time2018-07-19 13:16:49
Flight Rules Old
Wind280° at 08 kt
W.Decomp.*RWY 27: 7.9 kt HW 1.4 kt RCW
W.Rank280° ranks 1
Current wind is above 280° avg. (6.2)
Visibility9999 m
Phenomena:N/A
Clouds:Broken 020 Hf
Expected CloudBase > 3,200 ft AGL from Temp-Dew spread
Ceiling2,000 ft
Temp32°C (ISA +19)
Dew Point24°C (63% RH)
Heat Index38.0°C
QNH1012 hPa
Density Alt3,350 ft
Elevation801 ft
Report Wrong Elevation
Raw Report
METAR FKKR 191200Z 28008KT 9999 BKN020 32/24 Q1012 NOSIG=

Extra information for FKKR:More info

Metar Taf Metar & Taf Last 4 Metars F.Rules Stats Wind Profile Meteogram Temp Stats Airport Information Weather charts Add Link Nearby VenuesMetar ALERT Operation Metar Decoded Social comments